Time,TemperatureF,DewpointF,PressureIn,WindDirection,WindDirectionDegrees,WindSpeedMPH,WindSpeedGustMPH,Humidity,HourlyPrecipIn,Conditions,Clouds,dailyrainin,SoftwareType,DateUTC
2013-06-28 00:33:00,72.0,-99.9,29.59,NW,313,7.0,13.0,-999,0.00,,,-99.99,,2013-06-28 04:33:00,
2013-06-28 00:43:00,72.0,-99.9,29.59,NW,313,7.0,13.0,-999,0.00,,,-99.99,,2013-06-28 04:43:00,
2013-06-28 00:53:00,72.0,-99.9,29.59,NW,311,3.0,8.0,-999,-99.99,,,-99.99,,2013-06-28 04:53:00,
2013-06-28 01:33:00,72.0,-99.9,29.59,NW,311,3.0,8.0,-999,-99.99,,,-99.99,,2013-06-28 05:33:00,
2013-06-28 01:43:00,72.0,-99.9,29.59,NW,311,3.0,8.0,-999,-99.99,,,-99.99,,2013-06-28 05:43:00,
2013-06-28 02:34:00,72.0,-99.9,29.57,WNW,296,3.0,7.0,-999,0.00,,,-99.99,,2013-06-28 06:34:00,
2013-06-28 02:43:00,72.0,-99.9,29.57,WNW,296,3.0,7.0,-999,0.00,,,-99.99,,2013-06-28 06:43:00,
2013-06-28 02:52:00,72.0,-99.9,29.57,WNW,296,3.0,7.0,-999,0.00,,,-99.99,,2013-06-28 06:52:00,
2013-06-28 03:33:00,71.0,-99.9,29.57,WNW,298,3.0,9.0,-999,0.00,,,-99.99,,2013-06-28 07:33:00,
2013-06-28 03:43:00,71.0,-99.9,29.57,WNW,298,3.0,9.0,-999,0.00,,,-99.99,,2013-06-28 07:43:00,
2013-06-28 03:52:00,71.0,-99.9,29.57,WNW,298,3.0,9.0,-999,0.00,,,-99.99,,2013-06-28 07:52:00,
2013-06-28 04:33:00,71.0,-99.9,29.56,WNW,302,3.0,7.0,-999,0.00,,,-99.99,,2013-06-28 08:33:00,
2013-06-28 04:43:00,71.0,-99.9,29.56,WNW,302,3.0,7.0,-999,0.00,,,-99.99,,2013-06-28 08:43:00,
2013-06-28 04:52:00,71.0,-99.9,29.56,WNW,302,3.0,7.0,-999,0.00,,,-99.99,,2013-06-28 08:52:00,
2013-06-28 06:33:00,71.0,-99.9,29.57,WNW,301,4.0,6.0,-999,0.00,,,-99.99,,2013-06-28 10:33:00,
2013-06-28 06:42:00,71.0,-99.9,29.57,WNW,301,4.0,6.0,-999,0.00,,,-99.99,,2013-06-28 10:42:00,
2013-06-28 06:52:00,71.0,-99.9,29.57,WNW,301,4.0,6.0,-999,0.00,,,-99.99,,2013-06-28 10:52:00,
2013-06-28 06:53:00,71.0,-99.9,29.57,WNW,286,3.0,7.0,-999,0.00,,,-99.99,,2013-06-28 10:53:00,
2013-06-28 07:34:00,71.0,-99.9,29.57,WNW,286,3.0,7.0,-999,0.00,,,-99.99,,2013-06-28 11:34:00,
2013-06-28 07:43:00,71.0,-99.9,29.57,WNW,286,3.0,7.0,-999,0.00,,,-99.99,,2013-06-28 11:43:00,
2013-06-28 08:34:00,73.0,-99.9,29.57,NW,306,7.0,13.0,-999,0.00,,,-99.99,,2013-06-28 12:34:00,
2013-06-28 08:43:00,73.0,-99.9,29.57,NW,306,7.0,13.0,-999,0.00,,,-99.99,,2013-06-28 12:43:00,
2013-06-28 08:52:00,73.0,-99.9,29.57,NW,306,7.0,13.0,-999,0.00,,,-99.99,,2013-06-28 12:52:00,
2013-06-28 08:53:00,76.0,-99.9,29.55,West,273,7.0,10.0,-999,0.00,,,-99.99,,2013-06-28 12:53:00,
2013-06-28 09:43:00,76.0,-99.9,29.55,West,273,7.0,10.0,-999,0.00,,,-99.99,,2013-06-28 13:43:00,
2013-06-28 09:53:00,77.0,-99.9,29.54,North,-999,6.0,8.0,-999,0.00,,,-99.99,,2013-06-28 13:53:00,
2013-06-28 10:33:00,77.0,-99.9,29.54,North,-999,6.0,8.0,-999,0.00,,,-99.99,,2013-06-28 14:33:00,
2013-06-28 10:44:00,77.0,-99.9,29.54,North,-999,6.0,8.0,-999,0.00,,,-99.99,,2013-06-28 14:44:00,
2013-06-28 11:34:00,80.0,-99.9,29.54,NNW,336,6.0,13.0,-999,0.00,,,-99.99,,2013-06-28 15:34:00,
2013-06-28 11:43:00,80.0,-99.9,29.54,NNW,336,6.0,13.0,-999,0.00,,,-99.99,,2013-06-28 15:43:00,
2013-06-28 11:52:00,80.0,-99.9,29.54,NNW,336,6.0,13.0,-999,0.00,,,-99.99,,2013-06-28 15:52:00,
2013-06-28 11:53:00,80.0,-99.9,29.56,NNW,339,4.0,10.0,-999,0.00,,,-99.99,,2013-06-28 15:53:00,
2013-06-28 12:33:00,80.0,-99.9,29.56,NNW,339,4.0,10.0,-999,0.00,,,-99.99,,2013-06-28 16:33:00,
2013-06-28 12:44:00,80.0,-99.9,29.56,NNW,339,4.0,10.0,-999,0.00,,,-99.99,,2013-06-28 16:44:00,
2013-06-28 13:33:00,85.0,-99.9,29.54,NNW,332,7.0,15.0,-999,0.00,,,-99.99,,2013-06-28 17:33:00,
2013-06-28 13:44:00,85.0,-99.9,29.54,NNW,332,7.0,15.0,-999,0.00,,,-99.99,,2013-06-28 17:44:00,
2013-06-28 13:52:00,85.0,-99.9,29.54,NNW,332,7.0,15.0,-999,0.00,,,-99.99,,2013-06-28 17:52:00,
2013-06-28 14:53:00,84.0,-99.9,29.52,West,265,3.0,16.0,-999,0.00,,,-99.99,,2013-06-28 18:53:00,
2013-06-28 15:43:00,84.0,-99.9,29.52,West,265,3.0,16.0,-999,0.00,,,-99.99,,2013-06-28 19:43:00,
2013-06-28 16:33:00,87.0,-99.9,29.48,West,272,2.0,13.0,-999,0.00,,,-99.99,,2013-06-28 20:33:00,
2013-06-28 16:43:00,87.0,-99.9,29.48,West,272,2.0,13.0,-999,0.00,,,-99.99,,2013-06-28 20:43:00,
2013-06-28 16:52:00,87.0,-99.9,29.48,West,272,2.0,13.0,-999,0.00,,,-99.99,,2013-06-28 20:52:00,
2013-06-28 16:53:00,83.0,-99.9,29.50,WNW,301,-999.0,9.0,-999,0.00,,,-99.99,,2013-06-28 20:53:00,
2013-06-28 17:34:00,83.0,-99.9,29.50,WNW,301,-999.0,9.0,-999,0.00,,,-99.99,,2013-06-28 21:34:00,
2013-06-28 17:43:00,83.0,-99.9,29.50,WNW,301,-999.0,9.0,-999,0.00,,,-99.99,,2013-06-28 21:43:00,
2013-06-28 17:53:00,82.0,-99.9,29.49,West,259,-999.0,8.0,-999,0.00,,,-99.99,,2013-06-28 21:53:00,
2013-06-28 18:34:00,82.0,-99.9,29.49,West,259,-999.0,8.0,-999,0.00,,,-99.99,,2013-06-28 22:34:00,
2013-06-28 18:43:00,82.0,-99.9,29.49,West,259,-999.0,8.0,-999,0.00,,,-99.99,,2013-06-28 22:43:00,
2013-06-28 18:53:00,80.0,-99.9,29.49,West,278,6.0,9.0,-999,0.00,,,-99.99,,2013-06-28 22:53:00,
2013-06-28 19:34:00,80.0,-99.9,29.49,West,278,6.0,9.0,-999,0.00,,,-99.99,,2013-06-28 23:34:00,
2013-06-28 19:43:00,80.0,-99.9,29.49,West,278,6.0,9.0,-999,0.00,,,-99.99,,2013-06-28 23:43:00,
2013-06-28 20:33:00,74.0,-99.9,29.50,West,275,6.0,8.0,-999,0.01,,,-99.99,,2013-06-29 00:33:00,
2013-06-28 20:42:00,74.0,-99.9,29.50,West,275,6.0,8.0,-999,0.01,,,-99.99,,2013-06-29 00:42:00,
2013-06-28 20:52:00,74.0,-99.9,29.50,West,275,6.0,8.0,-999,0.01,,,-99.99,,2013-06-29 00:52:00,
2013-06-28 21:32:00,72.0,-99.9,29.53,WSW,239,-999.0,5.0,-999,0.00,,,-99.99,,2013-06-29 01:32:00,
2013-06-28 21:42:00,72.0,-99.9,29.53,WSW,239,-999.0,5.0,-999,0.00,,,-99.99,,2013-06-29 01:42:00,
2013-06-28 21:52:00,72.0,-99.9,29.53,WSW,239,-999.0,5.0,-999,0.00,,,-99.99,,2013-06-29 01:52:00,
2013-06-28 22:31:00,71.0,-99.9,29.55,NNW,346,7.0,10.0,-999,0.00,,,-99.99,,2013-06-29 02:31:00,
2013-06-28 22:41:00,71.0,-99.9,29.55,NNW,346,7.0,10.0,-999,0.00,,,-99.99,,2013-06-29 02:41:00,
2013-06-28 22:51:00,71.0,-99.9,29.55,NNW,346,7.0,10.0,-999,0.00,,,-99.99,,2013-06-29 02:51:00,
2013-06-28 23:32:00,71.0,-99.9,29.52,NW,309,4.0,5.0,-999,0.00,,,-99.99,,2013-06-29 03:32:00,
2013-06-28 23:41:00,71.0,-99.9,29.52,NW,309,4.0,5.0,-999,0.00,,,-99.99,,2013-06-29 03:41:00,
2013-06-28 23:51:00,71.0,-99.9,29.52,NW,309,4.0,5.0,-999,0.00,,,-99.99,,2013-06-29 03:51:00,